Time;durP1;ratioP1;P1;durP2;ratioP2;P2;SDS_P1;SDS_P2;PMS_P1;PMS_P2;Temp;Humidity;BMP_temperature;BMP_pressure;BME280_temperature;BME280_humidity;BME280_pressure;Samples;Min_cycle;Max_cycle;Signal;HPM_P1;HPM_P2
2022/08/15 00:00:27;;;;;;;7.63;7.07;;;;;;;;;;5009042;28;89802;-71
2022/08/15 00:02:55;;;;;;;7.70;7.00;;;;;;;;;;5019253;28;88759;-71
2022/08/15 00:05:28;;;;;;;8.68;7.75;;;;;;;;;;5008952;28;88859;-71
2022/08/15 00:07:55;;;;;;;8.55;7.60;;;;;;;;;;4999271;28;89847;-71
2022/08/15 00:10:22;;;;;;;10.88;7.93;;;;;;;;;;4999591;28;88763;-71
2022/08/15 00:13:12;;;;;;;7.82;7.13;;;;;;;;;;4998246;28;89857;-71
2022/08/15 00:15:40;;;;;;;8.50;7.70;;;;;;;;;;5005960;28;87981;-71
2022/08/15 00:18:09;;;;;;;9.27;7.80;;;;;;;;;;5018421;28;89657;-71
2022/08/15 00:20:37;;;;;;;10.73;8.00;;;;;;;;;;5019055;28;88697;-71
2022/08/15 00:23:17;;;;;;;8.73;7.90;;;;;;;;;;5011085;28;88062;-71
2022/08/15 00:25:47;;;;;;;9.07;7.88;;;;;;;;;;5018441;28;88186;-71
2022/08/15 00:28:23;;;;;;;8.25;7.60;;;;;;;;;;5019144;28;88726;-71
2022/08/15 00:31:03;;;;;;;8.88;7.88;;;;;;;;;;5018188;28;87817;-71
2022/08/15 00:33:30;;;;;;;9.43;7.43;;;;;;;;;;5017568;28;88757;-71
2022/08/15 00:35:56;;;;;;;10.63;7.93;;;;;;;;;;5021605;28;89056;-71
2022/08/15 00:38:43;;;;;;;8.63;7.93;;;;;;;;;;5013938;28;89829;-71
2022/08/15 00:44:04;;;;;;;8.63;7.85;;;;;;;;;;4998520;28;88049;-71
2022/08/15 00:46:32;;;;;;;9.75;7.78;;;;;;;;;;4996413;28;90449;-71
2022/08/15 00:48:59;;;;;;;9.15;8.30;;;;;;;;;;5003941;28;87984;-71
2022/08/15 00:51:36;;;;;;;8.63;7.82;;;;;;;;;;4998666;28;88037;-71
2022/08/15 00:54:02;;;;;;;8.68;7.95;;;;;;;;;;4998019;28;88567;-71
2022/08/15 00:56:31;;;;;;;8.25;7.70;;;;;;;;;;4997367;28;90406;-71
2022/08/15 00:59:01;;;;;;;10.57;7.80;;;;;;;;;;4984031;28;88068;-71
2022/08/15 01:01:32;;;;;;;9.13;8.10;;;;;;;;;;4987571;28;88900;-70
2022/08/15 01:04:01;;;;;;;8.32;7.57;;;;;;;;;;5004742;28;88712;-71
2022/08/15 01:06:29;;;;;;;8.70;7.78;;;;;;;;;;4998543;28;89489;-71
2022/08/15 01:08:57;;;;;;;12.05;7.43;;;;;;;;;;4996252;28;88708;-71
2022/08/15 01:11:26;;;;;;;8.45;7.78;;;;;;;;;;4998764;28;87991;-71
2022/08/15 01:14:00;;;;;;;8.73;7.95;;;;;;;;;;5012925;28;88684;-70
2022/08/15 01:16:30;;;;;;;9.23;8.45;;;;;;;;;;5013692;28;90889;-70
2022/08/15 01:19:05;;;;;;;10.43;8.10;;;;;;;;;;5016877;28;88622;-71
2022/08/15 01:22:04;;;;;;;8.82;8.02;;;;;;;;;;5000961;28;88232;-71
2022/08/15 01:24:39;;;;;;;15.75;8.43;;;;;;;;;;4994808;28;89739;-70
2022/08/15 01:27:29;;;;;;;8.98;8.20;;;;;;;;;;4996218;28;90631;-70
2022/08/15 01:30:06;;;;;;;8.88;8.15;;;;;;;;;;5004187;28;89332;-70
2022/08/15 01:32:55;;;;;;;20.08;8.43;;;;;;;;;;5016091;28;90101;-71
2022/08/15 01:35:21;;;;;;;11.27;8.82;;;;;;;;;;5008715;28;89599;-70
2022/08/15 01:37:51;;;;;;;9.15;8.32;;;;;;;;;;5017248;28;88729;-70
2022/08/15 01:40:30;;;;;;;9.55;8.63;;;;;;;;;;5016714;28;88955;-70
2022/08/15 01:43:22;;;;;;;8.23;7.40;;;;;;;;;;5016234;28;88706;-70
2022/08/15 01:45:48;;;;;;;10.68;8.57;;;;;;;;;;5000254;28;88621;-71
2022/08/15 01:48:22;;;;;;;8.32;7.72;;;;;;;;;;4997805;28;91153;-70
2022/08/15 01:51:01;;;;;;;9.65;8.73;;;;;;;;;;4996494;28;89910;-70
2022/08/15 01:53:50;;;;;;;7.97;7.18;;;;;;;;;;5015871;28;89988;-71
2022/08/15 01:56:38;;;;;;;8.77;8.18;;;;;;;;;;4997305;28;89891;-71
2022/08/15 01:59:13;;;;;;;9.63;8.15;;;;;;;;;;4977189;28;91658;-71
2022/08/15 02:01:44;;;;;;;9.52;8.57;;;;;;;;;;4976578;28;90191;-71
2022/08/15 02:04:22;;;;;;;8.05;7.40;;;;;;;;;;4986330;28;88655;-71
2022/08/15 02:06:52;;;;;;;11.98;8.80;;;;;;;;;;4997602;28;89585;-71
2022/08/15 02:09:26;;;;;;;10.65;9.45;;;;;;;;;;5017333;28;88892;-71
2022/08/15 02:12:13;;;;;;;12.18;9.32;;;;;;;;;;5015689;28;88225;-71
2022/08/15 02:15:01;;;;;;;8.82;8.13;;;;;;;;;;5017988;28;87533;-70
2022/08/15 02:17:27;;;;;;;10.65;8.35;;;;;;;;;;5016224;28;89843;-70
2022/08/15 02:19:57;;;;;;;11.60;8.30;;;;;;;;;;5016130;28;87871;-70
2022/08/15 02:22:26;;;;;;;8.55;7.82;;;;;;;;;;4998779;28;88763;-70
2022/08/15 02:24:59;;;;;;;8.70;8.00;;;;;;;;;;5014048;28;91376;-70
2022/08/15 02:27:27;;;;;;;8.65;7.60;;;;;;;;;;5016060;28;90796;-70
2022/08/15 02:29:54;;;;;;;8.95;8.20;;;;;;;;;;5015847;28;88845;-70
2022/08/15 02:32:23;;;;;;;8.68;7.88;;;;;;;;;;5018298;28;88570;-70
2022/08/15 02:34:57;;;;;;;8.43;7.63;;;;;;;;;;5015647;28;89575;-70
2022/08/15 02:37:25;;;;;;;8.35;7.55;;;;;;;;;;4999669;28;88479;-70
2022/08/15 02:39:52;;;;;;;8.07;7.32;;;;;;;;;;5003406;28;90433;-70
2022/08/15 02:42:24;;;;;;;7.97;7.25;;;;;;;;;;4995889;28;89124;-70
2022/08/15 02:44:51;;;;;;;8.40;7.72;;;;;;;;;;4995818;28;90892;-70
2022/08/15 02:47:18;;;;;;;7.50;6.90;;;;;;;;;;4994263;28;89487;-70
2022/08/15 02:49:49;;;;;;;9.48;7.85;;;;;;;;;;4995539;28;90528;-70
2022/08/15 02:52:19;;;;;;;7.65;6.97;;;;;;;;;;4998303;28;90524;-70
2022/08/15 02:54:49;;;;;;;12.80;7.57;;;;;;;;;;5026277;27;90456;-70
2022/08/15 02:57:33;;;;;;;7.70;7.20;;;;;;;;;;5042239;27;90505;-70
2022/08/15 03:00:21;;;;;;;8.82;7.30;;;;;;;;;;4994337;28;89763;-70
2022/08/15 03:03:02;;;;;;;7.97;7.10;;;;;;;;;;4995218;28;88549;-70
2022/08/15 03:05:31;;;;;;;8.20;7.60;;;;;;;;;;4996300;28;90918;-70
2022/08/15 03:07:59;;;;;;;7.53;6.93;;;;;;;;;;4994585;28;90249;-70
2022/08/15 03:10:26;;;;;;;8.95;7.60;;;;;;;;;;4998001;28;88018;-70
2022/08/15 03:13:05;;;;;;;8.27;7.25;;;;;;;;;;5013661;28;90178;-70
2022/08/15 03:15:43;;;;;;;7.38;6.78;;;;;;;;;;5021172;28;89914;-70
2022/08/15 03:18:24;;;;;;;7.97;7.13;;;;;;;;;;5018936;28;88677;-70
2022/08/15 03:20:59;;;;;;;7.85;7.15;;;;;;;;;;5010210;28;88578;-70
2022/08/15 03:23:27;;;;;;;7.53;7.03;;;;;;;;;;5002631;28;88055;-70
2022/08/15 03:26:08;;;;;;;8.43;7.63;;;;;;;;;;5018853;28;88671;-70
2022/08/15 03:28:54;;;;;;;8.30;7.40;;;;;;;;;;5010755;28;89717;-70
2022/08/15 03:31:32;;;;;;;10.70;7.97;;;;;;;;;;4999075;28;87380;-71
2022/08/15 03:34:11;;;;;;;8.13;7.53;;;;;;;;;;4998705;28;90234;-70
2022/08/15 03:36:45;;;;;;;10.02;7.68;;;;;;;;;;4997571;28;90860;-71
2022/08/15 03:39:20;;;;;;;9.18;8.48;;;;;;;;;;5002119;28;88870;-70
2022/08/15 03:41:49;;;;;;;9.10;8.30;;;;;;;;;;4998212;28;89179;-70
2022/08/15 03:44:23;;;;;;;12.85;8.02;;;;;;;;;;5013221;28;88280;-70
2022/08/15 03:46:56;;;;;;;9.57;8.68;;;;;;;;;;5003727;28;88764;-70
2022/08/15 03:49:25;;;;;;;9.52;8.73;;;;;;;;;;4997536;28;87975;-70
2022/08/15 03:52:11;;;;;;;11.30;7.78;;;;;;;;;;5029949;28;90108;-70
2022/08/15 03:54:40;;;;;;;7.60;6.95;;;;;;;;;;4993970;28;88526;-70
2022/08/15 03:57:13;;;;;;;7.85;7.18;;;;;;;;;;4996797;28;87764;-70
2022/08/15 03:59:43;;;;;;;7.85;7.07;;;;;;;;;;5000498;28;89924;-70
2022/08/15 04:02:11;;;;;;;9.93;7.95;;;;;;;;;;5054135;27;90572;-71
2022/08/15 04:04:56;;;;;;;8.00;6.78;;;;;;;;;;5009648;28;90509;-70
2022/08/15 04:07:26;;;;;;;6.43;5.95;;;;;;;;;;4978065;28;89453;-71
2022/08/15 04:10:14;;;;;;;7.40;6.35;;;;;;;;;;4978125;28;88844;-71
2022/08/15 04:13:03;;;;;;;7.30;6.57;;;;;;;;;;4984939;28;89746;-70
2022/08/15 04:15:34;;;;;;;9.18;6.35;;;;;;;;;;5008113;28;88331;-70
2022/08/15 04:18:00;;;;;;;8.50;7.68;;;;;;;;;;5018085;28;88830;-70
2022/08/15 04:20:48;;;;;;;7.45;6.88;;;;;;;;;;5003803;28;88158;-70
2022/08/15 04:23:18;;;;;;;7.90;6.78;;;;;;;;;;4998048;28;89354;-70
2022/08/15 04:25:48;;;;;;;6.57;6.13;;;;;;;;;;4999042;28;90854;-70
2022/08/15 04:28:20;;;;;;;6.85;6.40;;;;;;;;;;5031015;28;89490;-70
2022/08/15 04:30:56;;;;;;;10.98;6.68;;;;;;;;;;4997697;28;91774;-70
2022/08/15 04:33:27;;;;;;;7.00;6.47;;;;;;;;;;5013320;28;89595;-70
2022/08/15 04:36:16;;;;;;;6.85;6.35;;;;;;;;;;5016697;28;88616;-70
2022/08/15 04:38:47;;;;;;;6.88;6.20;;;;;;;;;;4996416;28;91040;-70
2022/08/15 04:41:16;;;;;;;8.63;6.40;;;;;;;;;;4997579;28;88138;-71
2022/08/15 04:44:03;;;;;;;10.20;6.47;;;;;;;;;;5031048;28;90703;-70
2022/08/15 04:46:31;;;;;;;6.57;6.07;;;;;;;;;;4997350;28;90971;-71
2022/08/15 04:48:59;;;;;;;7.00;6.35;;;;;;;;;;5013679;28;87333;-70
2022/08/15 04:51:27;;;;;;;6.88;6.32;;;;;;;;;;4997161;28;88769;-70
2022/08/15 04:54:05;;;;;;;7.63;6.32;;;;;;;;;;4997100;28;87952;-70
2022/08/15 04:56:35;;;;;;;6.28;5.68;;;;;;;;;;4996934;28;88740;-70
2022/08/15 04:59:20;;;;;;;7.13;6.18;;;;;;;;;;4978809;28;88566;-70
2022/08/15 05:02:13;;;;;;;9.65;6.13;;;;;;;;;;5027901;27;90503;-70
2022/08/15 05:05:01;;;;;;;7.32;6.72;;;;;;;;;;4995152;28;89516;-69
2022/08/15 05:07:28;;;;;;;6.72;6.32;;;;;;;;;;4984418;28;90472;-70
2022/08/15 05:09:56;;;;;;;8.70;6.90;;;;;;;;;;5019680;28;88368;-69
2022/08/15 05:12:34;;;;;;;8.45;6.30;;;;;;;;;;5002599;28;88762;-69
2022/08/15 05:15:02;;;;;;;6.90;6.40;;;;;;;;;;4996126;28;88728;-69
2022/08/15 05:17:30;;;;;;;7.90;7.20;;;;;;;;;;4996900;28;87930;-70
2022/08/15 05:20:19;;;;;;;10.73;7.18;;;;;;;;;;5003605;28;89357;-69
2022/08/15 05:22:51;;;;;;;15.93;7.05;;;;;;;;;;4998577;28;90065;-69
2022/08/15 05:25:21;;;;;;;8.80;7.43;;;;;;;;;;5033326;27;89328;-69
2022/08/15 05:27:51;;;;;;;10.30;6.65;;;;;;;;;;4972838;28;89280;-69
2022/08/15 05:30:20;;;;;;;7.63;6.97;;;;;;;;;;5006319;28;89497;-69
2022/08/15 05:32:47;;;;;;;7.15;6.47;;;;;;;;;;4982792;28;90553;-69
2022/08/15 05:35:15;;;;;;;8.80;7.22;;;;;;;;;;4980233;28;89995;-69
2022/08/15 05:37:44;;;;;;;10.90;6.93;;;;;;;;;;4984161;28;90322;-69
2022/08/15 05:40:12;;;;;;;8.57;7.75;;;;;;;;;;4985451;28;88023;-69
2022/08/15 05:42:50;;;;;;;9.77;8.77;;;;;;;;;;4989798;28;88458;-70
2022/08/15 05:45:19;;;;;;;10.00;8.95;;;;;;;;;;4989461;28;90659;-70
2022/08/15 05:48:10;;;;;;;10.52;9.63;;;;;;;;;;4992136;28;88787;-69
2022/08/15 05:50:53;;;;;;;10.18;8.77;;;;;;;;;;4995288;28;88026;-69
2022/08/15 05:53:34;;;;;;;10.88;9.68;;;;;;;;;;4981348;28;90070;-69
2022/08/15 05:56:11;;;;;;;10.85;9.75;;;;;;;;;;4994906;28;90340;-69
2022/08/15 05:58:48;;;;;;;10.00;9.20;;;;;;;;;;4988090;28;88550;-70
2022/08/15 06:01:23;;;;;;;9.90;9.18;;;;;;;;;;5005621;28;88862;-69
2022/08/15 06:03:58;;;;;;;9.93;8.95;;;;;;;;;;5008519;28;88050;-69
2022/08/15 06:06:29;;;;;;;9.60;8.52;;;;;;;;;;4977530;28;90787;-69
2022/08/15 06:09:32;;;;;;;11.68;9.00;;;;;;;;;;5013289;27;90762;-69
2022/08/15 06:12:13;;;;;;;11.52;8.50;;;;;;;;;;4995913;28;88873;-69
2022/08/15 06:14:56;;;;;;;12.35;8.68;;;;;;;;;;4993524;28;90683;-69
2022/08/15 06:17:34;;;;;;;13.65;9.02;;;;;;;;;;4974684;28;89390;-69
2022/08/15 06:20:06;;;;;;;8.98;8.05;;;;;;;;;;5026927;27;90008;-69
2022/08/15 06:23:12;;;;;;;9.07;8.23;;;;;;;;;;4990470;28;88858;-70
2022/08/15 06:26:02;;;;;;;9.23;8.30;;;;;;;;;;4994458;28;88695;-69
2022/08/15 06:28:48;;;;;;;9.05;8.32;;;;;;;;;;4990818;28;88353;-69
2022/08/15 06:31:28;;;;;;;9.32;7.95;;;;;;;;;;4995400;28;89749;-69
2022/08/15 06:34:05;;;;;;;8.45;7.65;;;;;;;;;;4996724;28;90059;-69
2022/08/15 06:37:12;;;;;;;16.70;7.07;;;;;;;;;;5029243;28;90266;-69
2022/08/15 06:39:38;;;;;;;9.27;5.95;;;;;;;;;;4964203;28;90064;-70
2022/08/15 06:42:22;;;;;;;6.85;6.25;;;;;;;;;;4992277;28;88917;-69
2022/08/15 06:44:59;;;;;;;5.85;5.10;;;;;;;;;;5024652;28;89130;-69
2022/08/15 06:47:28;;;;;;;7.93;4.97;;;;;;;;;;4998625;28;89897;-69
2022/08/15 06:50:04;;;;;;;4.90;4.25;;;;;;;;;;5000705;28;88629;-69
2022/08/15 06:52:46;;;;;;;6.35;4.40;;;;;;;;;;5031756;28;89002;-69
2022/08/15 06:55:22;;;;;;;5.07;3.83;;;;;;;;;;4989133;28;88366;-69
2022/08/15 06:57:57;;;;;;;6.20;4.00;;;;;;;;;;5012267;28;90820;-69
2022/08/15 07:00:39;;;;;;;5.83;3.90;;;;;;;;;;4979302;28;88103;-69
2022/08/15 07:03:30;;;;;;;3.95;3.50;;;;;;;;;;5012092;28;88156;-69
2022/08/15 07:06:10;;;;;;;3.70;3.40;;;;;;;;;;5001163;28;88599;-69
2022/08/15 07:09:03;;;;;;;5.85;3.42;;;;;;;;;;5031235;28;89719;-69
2022/08/15 07:11:38;;;;;;;6.82;3.28;;;;;;;;;;4977443;28;89450;-69
2022/08/15 07:14:38;;;;;;;4.00;2.35;;;;;;;;;;4977894;28;88627;-69
2022/08/15 07:17:20;;;;;;;7.75;2.67;;;;;;;;;;4989664;28;87919;-69
2022/08/15 07:19:54;;;;;;;4.40;2.50;;;;;;;;;;4978826;28;89904;-70
2022/08/15 07:22:34;;;;;;;3.15;2.33;;;;;;;;;;4996697;28;90488;-69
2022/08/15 07:25:10;;;;;;;3.13;2.20;;;;;;;;;;4999081;28;88723;-69
2022/08/15 07:27:37;;;;;;;5.07;2.47;;;;;;;;;;4994364;28;88500;-70
2022/08/15 07:30:15;;;;;;;5.85;2.60;;;;;;;;;;4981808;28;87936;-70
2022/08/15 07:32:42;;;;;;;2.55;2.35;;;;;;;;;;4979817;28;88768;-69
2022/08/15 07:35:12;;;;;;;4.82;2.20;;;;;;;;;;4977447;28;89537;-69
2022/08/15 07:37:50;;;;;;;4.63;2.22;;;;;;;;;;4978219;28;88171;-69
2022/08/15 07:40:25;;;;;;;4.43;2.40;;;;;;;;;;4980059;28;88018;-69
2022/08/15 07:42:56;;;;;;;2.55;2.35;;;;;;;;;;4981952;28;88819;-69
2022/08/15 07:45:31;;;;;;;2.35;2.10;;;;;;;;;;5019791;27;89402;-69
2022/08/15 07:48:11;;;;;;;5.38;2.30;;;;;;;;;;4987982;28;89547;-68
2022/08/15 07:50:40;;;;;;;;;;;;;;;;;;4981098;28;91147;-68
2022/08/15 07:53:16;;;;;;;2.63;2.10;;;;;;;;;;4983852;28;109960;-70
2022/08/15 07:56:04;;;;;;;5.25;2.50;;;;;;;;;;4976831;28;88758;-70
2022/08/15 07:58:53;;;;;;;3.63;2.50;;;;;;;;;;4981681;28;89072;-70
2022/08/15 08:01:25;;;;;;;6.50;2.33;;;;;;;;;;4979839;28;88759;-71
2022/08/15 08:04:05;;;;;;;4.32;2.45;;;;;;;;;;5000755;28;91463;-71
2022/08/15 08:06:36;;;;;;;4.38;2.40;;;;;;;;;;4998238;28;88114;-71
2022/08/15 08:09:29;;;;;;;7.95;2.33;;;;;;;;;;4997836;28;90642;-70
2022/08/15 08:12:09;;;;;;;5.53;2.78;;;;;;;;;;4997535;28;88908;-71
2022/08/15 08:14:36;;;;;;;3.72;2.78;;;;;;;;;;4996079;28;88025;-71
2022/08/15 08:17:36;;;;;;;2.60;2.40;;;;;;;;;;5017353;27;88532;-71
2022/08/15 08:20:21;;;;;;;6.68;2.58;;;;;;;;;;4977123;28;91515;-71
2022/08/15 08:22:55;;;;;;;5.38;2.60;;;;;;;;;;5001409;28;89892;-71
2022/08/15 08:25:42;;;;;;;6.10;3.10;;;;;;;;;;4997173;28;87972;-72
2022/08/15 08:28:34;;;;;;;2.70;2.50;;;;;;;;;;4998929;28;88674;-71
2022/08/15 08:31:27;;;;;;;2.28;2.17;;;;;;;;;;5002523;28;89468;-71
2022/08/15 08:34:02;;;;;;;4.35;2.38;;;;;;;;;;5018526;28;89181;-71
2022/08/15 08:36:55;;;;;;;3.07;2.00;;;;;;;;;;5018945;28;88806;-71
2022/08/15 08:39:26;;;;;;;4.57;2.40;;;;;;;;;;5018128;28;89548;-71
2022/08/15 08:42:05;;;;;;;4.97;2.75;;;;;;;;;;5021642;28;87956;-71
2022/08/15 08:45:10;;;;;;;4.07;2.53;;;;;;;;;;5017748;28;88526;-71
2022/08/15 08:47:45;;;;;;;5.57;2.50;;;;;;;;;;4999305;28;89054;-71
2022/08/15 08:50:17;;;;;;;2.83;2.47;;;;;;;;;;5018884;28;88909;-71
2022/08/15 08:53:11;;;;;;;6.03;3.00;;;;;;;;;;5017775;28;88683;-71
2022/08/15 08:55:47;;;;;;;4.45;2.47;;;;;;;;;;5017513;28;89608;-71
2022/08/15 08:58:28;;;;;;;4.50;2.72;;;;;;;;;;5018523;28;87985;-71
2022/08/15 09:01:11;;;;;;;5.93;2.40;;;;;;;;;;5018398;28;89656;-71
2022/08/15 09:03:46;;;;;;;4.78;2.60;;;;;;;;;;5013134;28;88960;-71
2022/08/15 09:06:21;;;;;;;4.55;2.65;;;;;;;;;;5000795;28;87978;-71
2022/08/15 09:08:57;;;;;;;6.43;2.60;;;;;;;;;;4997112;28;88768;-71
2022/08/15 09:11:27;;;;;;;7.15;2.55;;;;;;;;;;4997915;28;88102;-71
2022/08/15 09:13:56;;;;;;;3.33;2.78;;;;;;;;;;4998958;28;89670;-71
2022/08/15 09:16:30;;;;;;;2.90;2.65;;;;;;;;;;4998136;28;87952;-71
2022/08/15 09:19:01;;;;;;;2.55;2.10;;;;;;;;;;5002695;28;88641;-71
2022/08/15 09:21:28;;;;;;;7.70;2.60;;;;;;;;;;4998075;28;88794;-70
2022/08/15 09:24:04;;;;;;;5.78;2.53;;;;;;;;;;4995833;28;90042;-72
2022/08/15 09:27:06;;;;;;;3.92;2.55;;;;;;;;;;4999879;28;88101;-71
2022/08/15 09:29:42;;;;;;;11.13;3.03;;;;;;;;;;4998014;28;89756;-71
2022/08/15 09:32:35;;;;;;;11.35;3.20;;;;;;;;;;4998122;28;88028;-71
2022/08/15 09:35:26;;;;;;;9.40;2.80;;;;;;;;;;4995889;28;88058;-71
2022/08/15 09:38:01;;;;;;;4.65;2.85;;;;;;;;;;4990887;28;88693;-71
2022/08/15 09:40:53;;;;;;;7.43;2.75;;;;;;;;;;4997706;28;88726;-71
2022/08/15 09:43:41;;;;;;;7.37;2.90;;;;;;;;;;4997959;28;88804;-71
2022/08/15 09:46:35;;;;;;;8.38;3.45;;;;;;;;;;4997780;28;88662;-71
2022/08/15 09:49:08;;;;;;;3.33;2.92;;;;;;;;;;4978891;28;88942;-71
2022/08/15 09:51:36;;;;;;;7.68;3.00;;;;;;;;;;4993796;28;89696;-71
2022/08/15 09:54:20;;;;;;;5.28;3.13;;;;;;;;;;4980094;28;87888;-71
2022/08/15 09:57:16;;;;;;;3.17;2.42;;;;;;;;;;4977464;28;88754;-70
2022/08/15 09:59:43;;;;;;;3.63;2.45;;;;;;;;;;4977645;28;89957;-70
2022/08/15 10:02:20;;;;;;;5.70;2.90;;;;;;;;;;4976858;28;88695;-70
2022/08/15 10:05:03;;;;;;;11.57;3.10;;;;;;;;;;4980654;28;89643;-70
2022/08/15 10:07:45;;;;;;;9.60;2.90;;;;;;;;;;4985350;28;89021;-70
2022/08/15 10:10:45;;;;;;;7.68;2.92;;;;;;;;;;4977244;28;88899;-70
2022/08/15 10:13:23;;;;;;;4.50;2.85;;;;;;;;;;4978566;28;88710;-70
2022/08/15 10:15:50;;;;;;;4.43;3.17;;;;;;;;;;4980039;28;89611;-70
2022/08/15 10:18:23;;;;;;;6.60;2.85;;;;;;;;;;4977320;28;89451;-70
2022/08/15 10:20:56;;;;;;;4.15;2.83;;;;;;;;;;4982004;28;89078;-70
2022/08/15 10:23:29;;;;;;;7.00;3.17;;;;;;;;;;4987616;28;88125;-71
2022/08/15 10:26:15;;;;;;;8.20;3.17;;;;;;;;;;5000654;28;88881;-70
2022/08/15 10:29:08;;;;;;;8.80;3.60;;;;;;;;;;5000808;28;88986;-70
2022/08/15 10:31:37;;;;;;;7.32;3.55;;;;;;;;;;5000041;28;88451;-70
2022/08/15 10:34:38;;;;;;;8.73;3.88;;;;;;;;;;5002153;28;88857;-70
2022/08/15 10:37:15;;;;;;;5.82;3.67;;;;;;;;;;4990977;28;88966;-71
2022/08/15 10:39:47;;;;;;;8.88;3.92;;;;;;;;;;4984465;28;88109;-70
2022/08/15 10:42:16;;;;;;;4.20;3.80;;;;;;;;;;4980434;28;89417;-70
2022/08/15 10:45:00;;;;;;;9.43;4.13;;;;;;;;;;4979955;28;88067;-70
2022/08/15 10:47:38;;;;;;;11.48;4.43;;;;;;;;;;4987344;28;90852;-71
2022/08/15 10:50:24;;;;;;;6.95;3.88;;;;;;;;;;5000744;28;89787;-70
2022/08/15 10:53:15;;;;;;;13.18;4.68;;;;;;;;;;4999510;28;88852;-70
2022/08/15 10:55:41;;;;;;;7.65;3.70;;;;;;;;;;4994262;28;88617;-71
2022/08/15 10:58:24;;;;;;;7.82;5.03;;;;;;;;;;4980381;28;88873;-70
2022/08/15 11:01:01;;;;;;;;;;;;;;;;;;4981280;28;87739;-70
2022/08/15 11:03:29;;;;;;;;;;;;;;;;;;4984663;28;119075;-70
2022/08/15 11:06:16;;;;;;;15.63;5.10;;;;;;;;;;4982006;28;88470;-70
2022/08/15 11:08:46;;;;;;;9.43;5.53;;;;;;;;;;4980232;28;89350;-70
2022/08/15 11:11:13;;;;;;;31.30;7.30;;;;;;;;;;4987148;28;89132;-70
2022/08/15 11:13:50;;;;;;;28.92;6.88;;;;;;;;;;4979388;28;88272;-70
2022/08/15 11:16:18;;;;;;;27.13;6.80;;;;;;;;;;4980494;28;89597;-70
2022/08/15 11:18:58;;;;;;;;;;;;;;;;;;4980350;28;89888;-70
2022/08/15 11:21:25;;;;;;;15.75;6.68;;;;;;;;;;4980021;28;118220;-70
2022/08/15 11:23:53;;;;;;;24.48;7.30;;;;;;;;;;4982514;28;88889;-70
2022/08/15 11:26:24;;;;;;;16.40;6.40;;;;;;;;;;5001767;28;88281;-70
2022/08/15 11:29:08;;;;;;;16.00;7.30;;;;;;;;;;4980275;28;87924;-69
2022/08/15 11:31:53;;;;;;;12.93;6.30;;;;;;;;;;4978488;28;88961;-70
2022/08/15 11:34:27;;;;;;;17.00;7.07;;;;;;;;;;4979014;28;89000;-70
2022/08/15 11:37:36;;;;;;;10.35;7.18;;;;;;;;;;4980175;28;90164;-72
2022/08/15 11:40:21;;;;;;;11.65;6.90;;;;;;;;;;4979168;28;88566;-70
2022/08/15 11:42:48;;;;;;;10.45;6.60;;;;;;;;;;4983224;28;88043;-70
2022/08/15 11:45:28;;;;;;;15.07;7.25;;;;;;;;;;4992181;28;89580;-69
2022/08/15 11:48:26;;;;;;;11.65;7.38;;;;;;;;;;5000901;28;89771;-70
2022/08/15 11:51:13;;;;;;;11.35;6.85;;;;;;;;;;4999664;28;89930;-70
2022/08/15 11:54:01;;;;;;;9.60;6.50;;;;;;;;;;4999790;28;89141;-71
2022/08/15 11:56:48;;;;;;;10.23;7.57;;;;;;;;;;4998894;28;88803;-70
2022/08/15 11:59:22;;;;;;;13.27;7.78;;;;;;;;;;4996937;28;89590;-70
2022/08/15 12:02:07;;;;;;;11.65;6.78;;;;;;;;;;4978029;28;90425;-70
2022/08/15 12:04:35;;;;;;;11.43;7.32;;;;;;;;;;4979484;28;88858;-70
2022/08/15 12:07:27;;;;;;;14.25;7.45;;;;;;;;;;4979743;28;89491;-69
2022/08/15 12:10:00;;;;;;;19.08;6.55;;;;;;;;;;4978296;28;89875;-71
2022/08/15 12:12:36;;;;;;;8.00;5.85;;;;;;;;;;4982343;28;88811;-70
2022/08/15 12:15:07;;;;;;;9.38;6.60;;;;;;;;;;4985878;28;88787;-71
2022/08/15 12:17:35;;;;;;;11.27;6.30;;;;;;;;;;4979437;28;88415;-70
2022/08/15 12:20:39;;;;;;;9.35;5.65;;;;;;;;;;4980668;28;88408;-71
2022/08/15 12:23:24;;;;;;;11.40;6.25;;;;;;;;;;4979340;28;88865;-71
2022/08/15 12:25:54;;;;;;;6.60;6.00;;;;;;;;;;4997318;28;88952;-71
2022/08/15 12:28:21;;;;;;;9.63;6.15;;;;;;;;;;4998392;28;88684;-71
2022/08/15 12:31:24;;;;;;;11.55;6.78;;;;;;;;;;4996653;28;88784;-71
2022/08/15 12:34:09;;;;;;;14.98;6.55;;;;;;;;;;4979030;28;88702;-71
2022/08/15 12:36:55;;;;;;;11.07;7.80;;;;;;;;;;4980973;28;89653;-71
2022/08/15 12:39:52;;;;;;;10.20;7.47;;;;;;;;;;4979250;28;87848;-71
2022/08/15 12:42:25;;;;;;;14.32;8.07;;;;;;;;;;4979387;28;87895;-71
2022/08/15 12:45:14;;;;;;;8.07;7.03;;;;;;;;;;4975212;28;94124;-71
2022/08/15 12:47:42;;;;;;;10.75;7.43;;;;;;;;;;4978738;28;91781;-71
2022/08/15 12:50:28;;;;;;;9.98;6.57;;;;;;;;;;4976073;28;92553;-70
2022/08/15 12:52:56;;;;;;;11.63;7.43;;;;;;;;;;4977729;28;93336;-70
2022/08/15 12:55:23;;;;;;;9.27;6.70;;;;;;;;;;4994036;28;94875;-70
2022/08/15 12:57:50;;;;;;;11.70;7.28;;;;;;;;;;4994218;28;95468;-70
2022/08/15 13:00:20;;;;;;;8.77;6.65;;;;;;;;;;4998483;28;93583;-71
2022/08/15 13:03:28;;;;;;;13.07;6.57;;;;;;;;;;4987563;28;93245;-70
2022/08/15 13:06:20;;;;;;;8.40;6.55;;;;;;;;;;4975554;28;93101;-70
2022/08/15 13:08:59;;;;;;;8.35;6.22;;;;;;;;;;4975047;28;92387;-70
2022/08/15 13:11:26;;;;;;;12.00;6.50;;;;;;;;;;4976112;28;93155;-70
2022/08/15 13:13:53;;;;;;;8.48;7.53;;;;;;;;;;4975568;28;91885;-70
2022/08/15 13:16:20;;;;;;;18.50;6.55;;;;;;;;;;4976136;28;92466;-70
2022/08/15 13:19:08;;;;;;;12.30;6.18;;;;;;;;;;4979873;28;94336;-70
2022/08/15 13:24:32;;;;;;;9.63;6.38;;;;;;;;;;4986134;28;92417;-70
2022/08/15 13:27:01;;;;;;;10.30;7.03;;;;;;;;;;4994279;28;94301;-70
2022/08/15 13:29:29;;;;;;;10.65;6.30;;;;;;;;;;4995337;28;92488;-69
2022/08/15 13:32:00;;;;;;;5.70;4.88;;;;;;;;;;4976440;28;93047;-71
2022/08/15 13:34:29;;;;;;;12.73;6.18;;;;;;;;;;4980743;28;94430;-70
2022/08/15 13:37:08;;;;;;;10.52;5.97;;;;;;;;;;4976044;28;92574;-70
2022/08/15 13:39:36;;;;;;;6.32;5.70;;;;;;;;;;4977193;28;92429;-70
2022/08/15 13:42:21;;;;;;;7.00;6.22;;;;;;;;;;4993108;28;94383;-71
2022/08/15 13:45:09;;;;;;;15.00;7.60;;;;;;;;;;4975278;28;92730;-70
2022/08/15 13:47:37;;;;;;;8.60;6.65;;;;;;;;;;4984911;28;94993;-71
2022/08/15 13:50:14;;;;;;;7.70;6.50;;;;;;;;;;4994574;28;92405;-71
2022/08/15 13:52:44;;;;;;;7.57;6.00;;;;;;;;;;4982162;28;93012;-72
2022/08/15 13:55:23;;;;;;;7.22;5.45;;;;;;;;;;4974075;28;93516;-72
2022/08/15 13:57:55;;;;;;;8.82;6.53;;;;;;;;;;4974700;28;93119;-71
2022/08/15 14:00:42;;;;;;;7.03;5.78;;;;;;;;;;4980448;28;93076;-71
2022/08/15 14:03:29;;;;;;;9.48;6.47;;;;;;;;;;4992149;28;92433;-72
2022/08/15 14:06:00;;;;;;;8.23;6.20;;;;;;;;;;4974960;28;91801;-72
2022/08/15 14:08:30;;;;;;;12.52;6.88;;;;;;;;;;4983568;28;93183;-72
2022/08/15 14:11:17;;;;;;;9.32;5.95;;;;;;;;;;4974373;28;92490;-71
2022/08/15 14:13:58;;;;;;;8.40;5.93;;;;;;;;;;4973297;28;94806;-71
2022/08/15 14:16:26;;;;;;;11.93;6.50;;;;;;;;;;4973523;28;93432;-72
2022/08/15 14:19:13;;;;;;;6.20;5.60;;;;;;;;;;4979066;28;93444;-73
2022/08/15 14:21:59;;;;;;;9.93;5.90;;;;;;;;;;4974063;28;94264;-72
2022/08/15 14:24:26;;;;;;;8.10;5.80;;;;;;;;;;4984256;28;94314;-71
2022/08/15 14:27:13;;;;;;;8.93;6.57;;;;;;;;;;4974137;28;92494;-72
2022/08/15 14:29:59;;;;;;;10.38;5.82;;;;;;;;;;4973661;28;92907;-71
2022/08/15 14:32:31;;;;;;;18.40;7.37;;;;;;;;;;4977595;28;93310;-72
2022/08/15 14:35:18;;;;;;;9.02;6.47;;;;;;;;;;4974540;28;92329;-72
2022/08/15 14:37:48;;;;;;;11.07;6.60;;;;;;;;;;4973323;28;94300;-72
2022/08/15 14:40:25;;;;;;;9.82;6.63;;;;;;;;;;4979946;28;94904;-72
2022/08/15 14:42:52;;;;;;;12.45;6.47;;;;;;;;;;4973464;28;96274;-72
2022/08/15 14:45:25;;;;;;;6.57;5.30;;;;;;;;;;4973239;28;93218;-71
2022/08/15 14:48:12;;;;;;;11.70;6.88;;;;;;;;;;4974478;28;92439;-72
2022/08/15 14:51:00;;;;;;;6.90;5.68;;;;;;;;;;4972875;28;92915;-72
2022/08/15 14:53:46;;;;;;;8.40;6.20;;;;;;;;;;4974140;28;93263;-72
2022/08/15 14:56:13;;;;;;;10.75;7.18;;;;;;;;;;4981621;28;93628;-72
2022/08/15 14:58:41;;;;;;;14.15;7.93;;;;;;;;;;4974111;28;92701;-72
2022/08/15 15:01:20;;;;;;;11.45;7.18;;;;;;;;;;4992125;28;93729;-74
2022/08/15 15:03:56;;;;;;;9.00;6.57;;;;;;;;;;4982560;28;93076;-71
2022/08/15 15:06:25;;;;;;;15.63;6.55;;;;;;;;;;4972130;28;96617;-71
2022/08/15 15:08:59;;;;;;;12.05;8.38;;;;;;;;;;4976672;28;92503;-71
2022/08/15 15:11:27;;;;;;;9.50;7.05;;;;;;;;;;4980392;28;92484;-71
2022/08/15 15:13:53;;;;;;;11.05;6.60;;;;;;;;;;4976873;28;93851;-71
2022/08/15 15:16:23;;;;;;;12.48;6.60;;;;;;;;;;4977342;28;92496;-72
2022/08/15 15:19:10;;;;;;;11.65;8.57;;;;;;;;;;4989323;28;93754;-72
2022/08/15 15:21:37;;;;;;;10.00;7.85;;;;;;;;;;4977154;28;92392;-72
2022/08/15 15:24:04;;;;;;;8.70;6.82;;;;;;;;;;4980703;28;95967;-72
2022/08/15 15:26:30;;;;;;;14.80;7.47;;;;;;;;;;4990823;28;93611;-71
2022/08/15 15:29:03;;;;;;;23.08;9.13;;;;;;;;;;4985980;28;92663;-71
2022/08/15 15:31:32;;;;;;;14.95;8.45;;;;;;;;;;4984938;28;94763;-71
2022/08/15 15:33:58;;;;;;;12.65;6.82;;;;;;;;;;4999683;28;94389;-71
2022/08/15 15:36:36;;;;;;;11.00;7.90;;;;;;;;;;4993623;28;92498;-71
2022/08/15 15:39:02;;;;;;;;;;;;;;;;;;4982691;28;93056;-72
2022/08/15 15:41:29;;;;;;;14.65;7.72;;;;;;;;;;4976605;28;123849;-71
2022/08/15 15:44:12;;;;;;;10.52;7.32;;;;;;;;;;4983910;28;93916;-71